sensor_id;sensor_type;location;lat;lon;timestamp;temperature;humidity
56103;DHT22;41970;48.774;9.280;2022-10-04T00:02:23;10.10;99.90
56103;DHT22;41970;48.774;9.280;2022-10-04T00:05:05;10.00;99.90
56103;DHT22;41970;48.774;9.280;2022-10-04T00:07:43;10.00;99.90
56103;DHT22;41970;48.774;9.280;2022-10-04T00:10:23;9.80;99.90
56103;DHT22;41970;48.774;9.280;2022-10-04T00:13:21;9.80;99.90
56103;DHT22;41970;48.774;9.280;2022-10-04T00:15:48;9.70;99.90
56103;DHT22;41970;48.774;9.280;2022-10-04T00:25:52;9.70;99.90
56103;DHT22;41970;48.774;9.280;2022-10-04T00:44:17;9.50;99.90
56103;DHT22;41970;48.774;9.280;2022-10-04T00:46:49;9.60;99.90
56103;DHT22;41970;48.774;9.280;2022-10-04T00:49:19;9.60;99.90
56103;DHT22;41970;48.774;9.280;2022-10-04T00:52:06;9.60;99.90
56103;DHT22;41970;48.774;9.280;2022-10-04T00:54:42;9.50;99.90
56103;DHT22;41970;48.774;9.280;2022-10-04T00:57:16;9.50;99.90
56103;DHT22;41970;48.774;9.280;2022-10-04T00:59:49;9.60;99.90
56103;DHT22;41970;48.774;9.280;2022-10-04T01:02:24;9.60;99.90
56103;DHT22;41970;48.774;9.280;2022-10-04T01:05:00;9.50;99.90
56103;DHT22;41970;48.774;9.280;2022-10-04T01:07:38;9.50;99.90
56103;DHT22;41970;48.774;9.280;2022-10-04T01:10:17;9.50;99.90
56103;DHT22;41970;48.774;9.280;2022-10-04T01:12:45;9.40;99.90
56103;DHT22;41970;48.774;9.280;2022-10-04T01:23:42;9.50;99.90
56103;DHT22;41970;48.774;9.280;2022-10-04T01:29:06;9.30;99.90
56103;DHT22;41970;48.774;9.280;2022-10-04T01:31:35;9.20;99.90
56103;DHT22;41970;48.774;9.280;2022-10-04T01:34:02;9.20;99.90
56103;DHT22;41970;48.774;9.280;2022-10-04T01:36:30;9.20;99.90
56103;DHT22;41970;48.774;9.280;2022-10-04T01:38:56;9.20;99.90
56103;DHT22;41970;48.774;9.280;2022-10-04T01:41:47;9.10;99.90
56103;DHT22;41970;48.774;9.280;2022-10-04T01:44:40;8.90;99.90
56103;DHT22;41970;48.774;9.280;2022-10-04T01:49:51;8.80;99.90
56103;DHT22;41970;48.774;9.280;2022-10-04T01:52:21;8.80;99.90
56103;DHT22;41970;48.774;9.280;2022-10-04T01:55:34;8.80;99.90
56103;DHT22;41970;48.774;9.280;2022-10-04T01:57:49;8.90;99.90
56103;DHT22;41970;48.774;9.280;2022-10-04T02:00:20;8.90;99.90
56103;DHT22;41970;48.774;9.280;2022-10-04T02:05:39;8.90;99.90
56103;DHT22;41970;48.774;9.280;2022-10-04T02:08:10;8.90;99.90
56103;DHT22;41970;48.774;9.280;2022-10-04T02:10:38;8.90;99.90
56103;DHT22;41970;48.774;9.280;2022-10-04T02:13:09;8.80;99.90
56103;DHT22;41970;48.774;9.280;2022-10-04T02:15:36;8.80;99.90
56103;DHT22;41970;48.774;9.280;2022-10-04T02:18:11;8.70;99.90
56103;DHT22;41970;48.774;9.280;2022-10-04T02:20:39;8.90;99.90
56103;DHT22;41970;48.774;9.280;2022-10-04T02:23:06;9.00;99.90
56103;DHT22;41970;48.774;9.280;2022-10-04T02:25:35;9.00;99.90
56103;DHT22;41970;48.774;9.280;2022-10-04T02:28:01;8.90;99.90
56103;DHT22;41970;48.774;9.280;2022-10-04T02:30:27;8.90;99.90
56103;DHT22;41970;48.774;9.280;2022-10-04T02:32:55;9.00;99.90
56103;DHT22;41970;48.774;9.280;2022-10-04T02:38:16;8.90;99.90
56103;DHT22;41970;48.774;9.280;2022-10-04T02:41:23;8.80;99.90
56103;DHT22;41970;48.774;9.280;2022-10-04T02:43:51;8.70;99.90
56103;DHT22;41970;48.774;9.280;2022-10-04T02:46:40;8.70;99.90
56103;DHT22;41970;48.774;9.280;2022-10-04T02:49:36;8.80;99.90
56103;DHT22;41970;48.774;9.280;2022-10-04T02:55:51;8.40;99.90
56103;DHT22;41970;48.774;9.280;2022-10-04T02:57:58;8.50;99.90
56103;DHT22;41970;48.774;9.280;2022-10-04T03:00:26;8.50;99.90
56103;DHT22;41970;48.774;9.280;2022-10-04T03:03:16;8.50;99.90
56103;DHT22;41970;48.774;9.280;2022-10-04T03:05:44;8.60;99.90
56103;DHT22;41970;48.774;9.280;2022-10-04T03:08:12;8.80;99.90
56103;DHT22;41970;48.774;9.280;2022-10-04T03:10:41;8.90;99.90
56103;DHT22;41970;48.774;9.280;2022-10-04T03:13:07;8.90;99.90
56103;DHT22;41970;48.774;9.280;2022-10-04T03:15:34;8.90;99.90
56103;DHT22;41970;48.774;9.280;2022-10-04T03:18:00;8.90;99.90
56103;DHT22;41970;48.774;9.280;2022-10-04T03:20:26;9.00;99.90
56103;DHT22;41970;48.774;9.280;2022-10-04T03:22:54;9.00;99.90
56103;DHT22;41970;48.774;9.280;2022-10-04T03:25:40;9.10;99.90
56103;DHT22;41970;48.774;9.280;2022-10-04T03:28:09;9.10;99.90
56103;DHT22;41970;48.774;9.280;2022-10-04T03:30:35;9.00;99.90
56103;DHT22;41970;48.774;9.280;2022-10-04T03:33:02;9.00;99.90
56103;DHT22;41970;48.774;9.280;2022-10-04T03:35:32;9.00;99.90
56103;DHT22;41970;48.774;9.280;2022-10-04T03:37:59;8.80;99.90
56103;DHT22;41970;48.774;9.280;2022-10-04T03:40:29;8.80;99.90
56103;DHT22;41970;48.774;9.280;2022-10-04T03:42:59;8.90;99.90
56103;DHT22;41970;48.774;9.280;2022-10-04T03:45:27;8.90;99.90
56103;DHT22;41970;48.774;9.280;2022-10-04T03:48:04;8.80;99.90
56103;DHT22;41970;48.774;9.280;2022-10-04T03:50:34;8.80;99.90
56103;DHT22;41970;48.774;9.280;2022-10-04T03:53:09;8.80;99.90
56103;DHT22;41970;48.774;9.280;2022-10-04T03:55:39;8.90;99.90
56103;DHT22;41970;48.774;9.280;2022-10-04T03:58:14;8.60;99.90
56103;DHT22;41970;48.774;9.280;2022-10-04T04:03:43;8.40;99.90
56103;DHT22;41970;48.774;9.280;2022-10-04T04:06:15;8.60;99.90
56103;DHT22;41970;48.774;9.280;2022-10-04T04:08:45;8.60;99.90
56103;DHT22;41970;48.774;9.280;2022-10-04T04:11:23;8.60;99.90
56103;DHT22;41970;48.774;9.280;2022-10-04T04:14:10;8.60;99.90
56103;DHT22;41970;48.774;9.280;2022-10-04T04:16:37;8.60;99.90
56103;DHT22;41970;48.774;9.280;2022-10-04T04:19:10;8.70;99.90
56103;DHT22;41970;48.774;9.280;2022-10-04T04:21:37;8.70;99.90
56103;DHT22;41970;48.774;9.280;2022-10-04T04:24:11;8.70;99.90
56103;DHT22;41970;48.774;9.280;2022-10-04T04:26:47;8.70;99.90
56103;DHT22;41970;48.774;9.280;2022-10-04T04:35:01;8.80;99.90
56103;DHT22;41970;48.774;9.280;2022-10-04T04:37:37;8.70;99.90
56103;DHT22;41970;48.774;9.280;2022-10-04T04:40:23;8.50;99.90
56103;DHT22;41970;48.774;9.280;2022-10-04T04:42:50;8.60;99.90
56103;DHT22;41970;48.774;9.280;2022-10-04T04:45:22;8.70;99.90
56103;DHT22;41970;48.774;9.280;2022-10-04T04:47:52;8.70;99.90
56103;DHT22;41970;48.774;9.280;2022-10-04T04:50:31;8.60;99.90
56103;DHT22;41970;48.774;9.280;2022-10-04T04:55:43;7.90;99.90
56103;DHT22;41970;48.774;9.280;2022-10-04T04:58:43;8.00;99.90
56103;DHT22;41970;48.774;9.280;2022-10-04T05:01:21;8.20;99.90
56103;DHT22;41970;48.774;9.280;2022-10-04T05:06:34;8.40;99.90
56103;DHT22;41970;48.774;9.280;2022-10-04T05:09:00;8.40;99.90
56103;DHT22;41970;48.774;9.280;2022-10-04T05:11:30;8.50;99.90
56103;DHT22;41970;48.774;9.280;2022-10-04T05:14:10;8.40;99.90
56103;DHT22;41970;48.774;9.280;2022-10-04T05:19:26;8.60;99.90
56103;DHT22;41970;48.774;9.280;2022-10-04T05:21:57;8.60;99.90
56103;DHT22;41970;48.774;9.280;2022-10-04T05:24:37;8.60;99.90
56103;DHT22;41970;48.774;9.280;2022-10-04T05:27:06;8.50;99.90
56103;DHT22;41970;48.774;9.280;2022-10-04T05:29:35;8.60;99.90
56103;DHT22;41970;48.774;9.280;2022-10-04T05:32:53;8.70;99.90
56103;DHT22;41970;48.774;9.280;2022-10-04T05:35:19;8.70;99.90
56103;DHT22;41970;48.774;9.280;2022-10-04T05:38:06;8.70;99.90
56103;DHT22;41970;48.774;9.280;2022-10-04T05:40:43;8.70;99.90
56103;DHT22;41970;48.774;9.280;2022-10-04T05:43:31;8.70;99.90
56103;DHT22;41970;48.774;9.280;2022-10-04T05:46:22;8.70;99.90
56103;DHT22;41970;48.774;9.280;2022-10-04T05:48:55;8.70;99.90
56103;DHT22;41970;48.774;9.280;2022-10-04T05:51:32;8.80;99.90
56103;DHT22;41970;48.774;9.280;2022-10-04T05:54:02;8.70;99.90
56103;DHT22;41970;48.774;9.280;2022-10-04T05:59:32;8.70;99.90
56103;DHT22;41970;48.774;9.280;2022-10-04T06:13:21;9.10;99.90
56103;DHT22;41970;48.774;9.280;2022-10-04T06:21:26;9.30;99.90
56103;DHT22;41970;48.774;9.280;2022-10-04T06:24:10;9.30;99.90
56103;DHT22;41970;48.774;9.280;2022-10-04T06:26:42;9.30;99.90
56103;DHT22;41970;48.774;9.280;2022-10-04T06:29:18;9.20;99.90
56103;DHT22;41970;48.774;9.280;2022-10-04T06:32:01;9.20;99.90
56103;DHT22;41970;48.774;9.280;2022-10-04T06:51:34;9.70;99.90
56103;DHT22;41970;48.774;9.280;2022-10-04T06:59:28;9.70;99.90
56103;DHT22;41970;48.774;9.280;2022-10-04T07:02:01;9.80;99.90
56103;DHT22;41970;48.774;9.280;2022-10-04T07:04:38;9.90;99.90
56103;DHT22;41970;48.774;9.280;2022-10-04T07:07:32;10.00;99.90
56103;DHT22;41970;48.774;9.280;2022-10-04T07:10:30;10.10;99.90
56103;DHT22;41970;48.774;9.280;2022-10-04T07:15:40;10.30;99.90
56103;DHT22;41970;48.774;9.280;2022-10-04T07:18:13;10.30;99.90
56103;DHT22;41970;48.774;9.280;2022-10-04T07:20:40;10.40;99.90
56103;DHT22;41970;48.774;9.280;2022-10-04T07:23:22;10.60;99.90
56103;DHT22;41970;48.774;9.280;2022-10-04T07:25:53;10.60;99.90
56103;DHT22;41970;48.774;9.280;2022-10-04T07:28:28;10.60;99.90
56103;DHT22;41970;48.774;9.280;2022-10-04T07:31:22;10.70;99.90
56103;DHT22;41970;48.774;9.280;2022-10-04T07:33:55;10.80;99.90
56103;DHT22;41970;48.774;9.280;2022-10-04T07:39:21;10.50;99.90
56103;DHT22;41970;48.774;9.280;2022-10-04T07:45:37;10.20;99.90
56103;DHT22;41970;48.774;9.280;2022-10-04T07:48:15;10.00;99.90
56103;DHT22;41970;48.774;9.280;2022-10-04T07:53:17;9.90;99.90
56103;DHT22;41970;48.774;9.280;2022-10-04T07:56:05;10.00;99.90
56103;DHT22;41970;48.774;9.280;2022-10-04T08:01:37;10.80;99.90
56103;DHT22;41970;48.774;9.280;2022-10-04T08:07:00;11.90;99.90
56103;DHT22;41970;48.774;9.280;2022-10-04T08:09:47;12.20;99.90
56103;DHT22;41970;48.774;9.280;2022-10-04T08:18:41;12.50;99.90
56103;DHT22;41970;48.774;9.280;2022-10-04T08:21:16;12.60;99.90
56103;DHT22;41970;48.774;9.280;2022-10-04T08:24:06;12.60;99.90
56103;DHT22;41970;48.774;9.280;2022-10-04T08:29:55;12.60;99.90
56103;DHT22;41970;48.774;9.280;2022-10-04T08:38:45;11.50;99.90
56103;DHT22;41970;48.774;9.280;2022-10-04T08:41:53;11.20;99.90
56103;DHT22;41970;48.774;9.280;2022-10-04T08:45:29;11.50;99.90
56103;DHT22;41970;48.774;9.280;2022-10-04T08:53:16;13.00;99.90
56103;DHT22;41970;48.774;9.280;2022-10-04T09:13:32;12.80;99.90
56103;DHT22;41970;48.774;9.280;2022-10-04T09:16:17;13.40;99.90
56103;DHT22;41970;48.774;9.280;2022-10-04T09:30:19;14.70;99.90
56103;DHT22;41970;48.774;9.280;2022-10-04T09:41:40;15.80;98.90
56103;DHT22;41970;48.774;9.280;2022-10-04T09:47:01;16.40;98.10
56103;DHT22;41970;48.774;9.280;2022-10-04T09:55:58;16.20;97.70
56103;DHT22;41970;48.774;9.280;2022-10-04T10:12:40;15.70;97.50
56103;DHT22;41970;48.774;9.280;2022-10-04T10:30:12;16.00;97.80
56103;DHT22;41970;48.774;9.280;2022-10-04T10:35:46;16.20;97.80
56103;DHT22;41970;48.774;9.280;2022-10-04T10:44:26;16.10;98.00
56103;DHT22;41970;48.774;9.280;2022-10-04T10:59:04;16.00;97.90
56103;DHT22;41970;48.774;9.280;2022-10-04T11:09:28;16.50;97.70
56103;DHT22;41970;48.774;9.280;2022-10-04T11:15:30;16.50;96.80
56103;DHT22;41970;48.774;9.280;2022-10-04T11:18:01;16.50;97.10
56103;DHT22;41970;48.774;9.280;2022-10-04T11:20:51;16.80;97.10
56103;DHT22;41970;48.774;9.280;2022-10-04T11:28:28;17.10;96.20
56103;DHT22;41970;48.774;9.280;2022-10-04T11:31:25;16.80;96.30
56103;DHT22;41970;48.774;9.280;2022-10-04T11:37:00;16.50;96.90
56103;DHT22;41970;48.774;9.280;2022-10-04T11:42:36;16.70;97.10
56103;DHT22;41970;48.774;9.280;2022-10-04T11:59:33;16.90;97.30
56103;DHT22;41970;48.774;9.280;2022-10-04T12:10:42;16.60;98.00
56103;DHT22;41970;48.774;9.280;2022-10-04T12:30:21;17.50;96.40
56103;DHT22;41970;48.774;9.280;2022-10-04T12:32:57;17.50;96.50
56103;DHT22;41970;48.774;9.280;2022-10-04T12:35:55;17.50;96.40
56103;DHT22;41970;48.774;9.280;2022-10-04T12:41:43;17.20;96.60
56103;DHT22;41970;48.774;9.280;2022-10-04T12:44:39;17.00;96.90
56103;DHT22;41970;48.774;9.280;2022-10-04T12:47:43;17.00;97.10
56103;DHT22;41970;48.774;9.280;2022-10-04T12:53:04;17.60;97.00
56103;DHT22;41970;48.774;9.280;2022-10-04T12:55:53;17.80;96.10
56103;DHT22;41970;48.774;9.280;2022-10-04T13:01:35;17.60;96.60
56103;DHT22;41970;48.774;9.280;2022-10-04T13:07:17;18.20;95.60
56103;DHT22;41970;48.774;9.280;2022-10-04T13:15:54;18.30;95.30
56103;DHT22;41970;48.774;9.280;2022-10-04T13:24:24;18.50;95.30
56103;DHT22;41970;48.774;9.280;2022-10-04T13:27:04;18.30;94.70
56103;DHT22;41970;48.774;9.280;2022-10-04T13:32:57;18.30;95.10
56103;DHT22;41970;48.774;9.280;2022-10-04T13:40:53;18.90;94.50
56103;DHT22;41970;48.774;9.280;2022-10-04T13:46:22;18.60;95.10
56103;DHT22;41970;48.774;9.280;2022-10-04T13:49:03;18.60;95.20
56103;DHT22;41970;48.774;9.280;2022-10-04T13:55:19;18.90;94.70
56103;DHT22;41970;48.774;9.280;2022-10-04T14:21:18;19.00;94.00
56103;DHT22;41970;48.774;9.280;2022-10-04T14:24:07;19.20;93.90
56103;DHT22;41970;48.774;9.280;2022-10-04T14:35:08;18.90;93.10
56103;DHT22;41970;48.774;9.280;2022-10-04T14:50:25;19.20;93.40
56103;DHT22;41970;48.774;9.280;2022-10-04T14:52:35;19.10;93.90
56103;DHT22;41970;48.774;9.280;2022-10-04T15:12:21;18.70;93.90
56103;DHT22;41970;48.774;9.280;2022-10-04T15:23:06;18.70;93.90
56103;DHT22;41970;48.774;9.280;2022-10-04T15:25:46;18.60;94.10
56103;DHT22;41970;48.774;9.280;2022-10-04T15:36:36;18.70;95.00
56103;DHT22;41970;48.774;9.280;2022-10-04T15:42:32;18.80;94.50
56103;DHT22;41970;48.774;9.280;2022-10-04T15:48:04;18.70;95.00
56103;DHT22;41970;48.774;9.280;2022-10-04T15:50:58;18.60;95.00
56103;DHT22;41970;48.774;9.280;2022-10-04T16:29:38;17.60;99.90
56103;DHT22;41970;48.774;9.280;2022-10-04T16:43:29;17.50;99.90
56103;DHT22;41970;48.774;9.280;2022-10-04T16:49:22;17.60;99.90
56103;DHT22;41970;48.774;9.280;2022-10-04T16:52:22;17.40;99.90
56103;DHT22;41970;48.774;9.280;2022-10-04T16:55:25;17.20;99.90
56103;DHT22;41970;48.774;9.280;2022-10-04T17:03:58;16.50;99.90
56103;DHT22;41970;48.774;9.280;2022-10-04T17:12:50;16.70;99.90
56103;DHT22;41970;48.774;9.280;2022-10-04T17:15:23;16.80;99.90
56103;DHT22;41970;48.774;9.280;2022-10-04T17:18:16;16.70;99.90
56103;DHT22;41970;48.774;9.280;2022-10-04T17:20:57;16.60;99.90
56103;DHT22;41970;48.774;9.280;2022-10-04T17:23:44;16.60;99.90
56103;DHT22;41970;48.774;9.280;2022-10-04T17:26:46;16.30;99.90
56103;DHT22;41970;48.774;9.280;2022-10-04T17:32:47;15.90;99.90
56103;DHT22;41970;48.774;9.280;2022-10-04T17:46:07;15.60;99.90
56103;DHT22;41970;48.774;9.280;2022-10-04T17:51:49;15.50;99.90
56103;DHT22;41970;48.774;9.280;2022-10-04T18:00:20;15.50;99.90
56103;DHT22;41970;48.774;9.280;2022-10-04T18:08:42;15.20;99.90
56103;DHT22;41970;48.774;9.280;2022-10-04T18:11:33;15.30;99.90
56103;DHT22;41970;48.774;9.280;2022-10-04T18:16:56;15.30;99.90
56103;DHT22;41970;48.774;9.280;2022-10-04T18:22:17;15.30;99.90
56103;DHT22;41970;48.774;9.280;2022-10-04T18:24:45;15.20;99.90
56103;DHT22;41970;48.774;9.280;2022-10-04T18:27:25;14.80;99.90
56103;DHT22;41970;48.774;9.280;2022-10-04T18:30:11;14.60;99.90
56103;DHT22;41970;48.774;9.280;2022-10-04T18:33:00;14.50;99.90
56103;DHT22;41970;48.774;9.280;2022-10-04T18:35:30;14.50;99.90
56103;DHT22;41970;48.774;9.280;2022-10-04T18:38:28;14.50;99.90
56103;DHT22;41970;48.774;9.280;2022-10-04T18:41:00;14.50;99.90
56103;DHT22;41970;48.774;9.280;2022-10-04T18:43:44;14.50;99.90
56103;DHT22;41970;48.774;9.280;2022-10-04T18:46:19;14.60;99.90
56103;DHT22;41970;48.774;9.280;2022-10-04T18:48:58;14.50;99.90
56103;DHT22;41970;48.774;9.280;2022-10-04T18:51:52;14.50;99.90
56103;DHT22;41970;48.774;9.280;2022-10-04T19:03:00;14.60;99.90
56103;DHT22;41970;48.774;9.280;2022-10-04T19:17:10;14.90;99.90
56103;DHT22;41970;48.774;9.280;2022-10-04T19:22:53;15.00;99.90
56103;DHT22;41970;48.774;9.280;2022-10-04T19:25:36;15.00;99.90
56103;DHT22;41970;48.774;9.280;2022-10-04T19:28:12;15.10;99.90
56103;DHT22;41970;48.774;9.280;2022-10-04T19:36:24;15.20;99.90
56103;DHT22;41970;48.774;9.280;2022-10-04T19:41:50;15.10;99.90
56103;DHT22;41970;48.774;9.280;2022-10-04T19:44:28;15.10;99.90
56103;DHT22;41970;48.774;9.280;2022-10-04T19:50:12;14.90;99.90
56103;DHT22;41970;48.774;9.280;2022-10-04T19:55:57;14.80;99.90
56103;DHT22;41970;48.774;9.280;2022-10-04T19:58:32;14.80;99.90
56103;DHT22;41970;48.774;9.280;2022-10-04T20:01:07;14.80;99.90
56103;DHT22;41970;48.774;9.280;2022-10-04T20:03:34;14.70;99.90
56103;DHT22;41970;48.774;9.280;2022-10-04T20:06:00;14.60;99.90
56103;DHT22;41970;48.774;9.280;2022-10-04T20:08:54;14.60;99.90
56103;DHT22;41970;48.774;9.280;2022-10-04T20:11:26;14.60;99.90
56103;DHT22;41970;48.774;9.280;2022-10-04T20:19:38;14.50;99.90
56103;DHT22;41970;48.774;9.280;2022-10-04T20:35:08;14.10;99.90
56103;DHT22;41970;48.774;9.280;2022-10-04T20:45:47;13.20;99.90
56103;DHT22;41970;48.774;9.280;2022-10-04T20:48:28;13.30;99.90
56103;DHT22;41970;48.774;9.280;2022-10-04T20:50:55;13.40;99.90
56103;DHT22;41970;48.774;9.280;2022-10-04T20:53:31;13.40;99.90
56103;DHT22;41970;48.774;9.280;2022-10-04T20:56:21;13.60;99.90
56103;DHT22;41970;48.774;9.280;2022-10-04T20:58:59;13.60;99.90
56103;DHT22;41970;48.774;9.280;2022-10-04T21:01:35;13.50;99.90
56103;DHT22;41970;48.774;9.280;2022-10-04T21:04:20;13.30;99.90
56103;DHT22;41970;48.774;9.280;2022-10-04T21:07:08;13.30;99.90
56103;DHT22;41970;48.774;9.280;2022-10-04T21:09:40;13.40;99.90
56103;DHT22;41970;48.774;9.280;2022-10-04T21:17:41;13.40;99.90
56103;DHT22;41970;48.774;9.280;2022-10-04T21:21:00;13.10;99.90
56103;DHT22;41970;48.774;9.280;2022-10-04T21:23:18;12.60;99.90
56103;DHT22;41970;48.774;9.280;2022-10-04T21:25:47;12.60;99.90
56103;DHT22;41970;48.774;9.280;2022-10-04T21:28:29;12.80;99.90
56103;DHT22;41970;48.774;9.280;2022-10-04T21:30:55;12.80;99.90
56103;DHT22;41970;48.774;9.280;2022-10-04T21:33:21;12.90;99.90
56103;DHT22;41970;48.774;9.280;2022-10-04T21:35:50;12.80;99.90
56103;DHT22;41970;48.774;9.280;2022-10-04T21:38:17;12.70;99.90
56103;DHT22;41970;48.774;9.280;2022-10-04T21:40:43;12.70;99.90
56103;DHT22;41970;48.774;9.280;2022-10-04T21:43:09;12.80;99.90
56103;DHT22;41970;48.774;9.280;2022-10-04T21:45:35;12.60;99.90
56103;DHT22;41970;48.774;9.280;2022-10-04T21:48:01;12.60;99.90
56103;DHT22;41970;48.774;9.280;2022-10-04T21:50:26;12.60;99.90
56103;DHT22;41970;48.774;9.280;2022-10-04T21:52:52;12.60;99.90
56103;DHT22;41970;48.774;9.280;2022-10-04T21:55:18;12.60;99.90
56103;DHT22;41970;48.774;9.280;2022-10-04T21:57:44;12.70;99.90
56103;DHT22;41970;48.774;9.280;2022-10-04T22:00:10;12.70;99.90
56103;DHT22;41970;48.774;9.280;2022-10-04T22:02:36;12.80;99.90
56103;DHT22;41970;48.774;9.280;2022-10-04T22:05:01;12.80;99.90
56103;DHT22;41970;48.774;9.280;2022-10-04T22:07:27;12.70;99.90
56103;DHT22;41970;48.774;9.280;2022-10-04T22:09:53;12.70;99.90
56103;DHT22;41970;48.774;9.280;2022-10-04T22:12:19;12.70;99.90
56103;DHT22;41970;48.774;9.280;2022-10-04T22:14:44;12.60;99.90
56103;DHT22;41970;48.774;9.280;2022-10-04T22:17:10;12.70;99.90
56103;DHT22;41970;48.774;9.280;2022-10-04T22:19:36;12.60;99.90
56103;DHT22;41970;48.774;9.280;2022-10-04T22:22:02;12.60;99.90
56103;DHT22;41970;48.774;9.280;2022-10-04T22:24:28;12.60;99.90
56103;DHT22;41970;48.774;9.280;2022-10-04T22:26:55;12.60;99.90
56103;DHT22;41970;48.774;9.280;2022-10-04T22:29:21;12.50;99.90
56103;DHT22;41970;48.774;9.280;2022-10-04T22:31:50;12.50;99.90
56103;DHT22;41970;48.774;9.280;2022-10-04T22:34:18;12.50;99.90
56103;DHT22;41970;48.774;9.280;2022-10-04T22:36:46;12.40;99.90
56103;DHT22;41970;48.774;9.280;2022-10-04T22:39:15;12.40;99.90
56103;DHT22;41970;48.774;9.280;2022-10-04T22:41:55;12.40;99.90
56103;DHT22;41970;48.774;9.280;2022-10-04T22:44:25;12.30;99.90
56103;DHT22;41970;48.774;9.280;2022-10-04T22:46:55;12.40;99.90
56103;DHT22;41970;48.774;9.280;2022-10-04T22:49:24;12.30;99.90
56103;DHT22;41970;48.774;9.280;2022-10-04T22:51:51;12.30;99.90
56103;DHT22;41970;48.774;9.280;2022-10-04T22:54:20;12.30;99.90
56103;DHT22;41970;48.774;9.280;2022-10-04T22:56:48;12.30;99.90
56103;DHT22;41970;48.774;9.280;2022-10-04T22:59:15;12.30;99.90
56103;DHT22;41970;48.774;9.280;2022-10-04T23:01:42;12.30;99.90
56103;DHT22;41970;48.774;9.280;2022-10-04T23:04:21;12.30;99.90
56103;DHT22;41970;48.774;9.280;2022-10-04T23:06:51;12.30;99.90
56103;DHT22;41970;48.774;9.280;2022-10-04T23:09:18;12.20;99.90
56103;DHT22;41970;48.774;9.280;2022-10-04T23:11:44;12.20;99.90
56103;DHT22;41970;48.774;9.280;2022-10-04T23:14:10;12.20;99.90
56103;DHT22;41970;48.774;9.280;2022-10-04T23:16:37;12.20;99.90
56103;DHT22;41970;48.774;9.280;2022-10-04T23:19:15;12.10;99.90
56103;DHT22;41970;48.774;9.280;2022-10-04T23:21:47;12.10;99.90
56103;DHT22;41970;48.774;9.280;2022-10-04T23:24:18;12.10;99.90
56103;DHT22;41970;48.774;9.280;2022-10-04T23:26:53;12.00;99.90
56103;DHT22;41970;48.774;9.280;2022-10-04T23:29:25;12.00;99.90
56103;DHT22;41970;48.774;9.280;2022-10-04T23:31:52;11.90;99.90
56103;DHT22;41970;48.774;9.280;2022-10-04T23:34:26;11.90;99.90
56103;DHT22;41970;48.774;9.280;2022-10-04T23:36:52;11.90;99.90
56103;DHT22;41970;48.774;9.280;2022-10-04T23:39:27;11.90;99.90
56103;DHT22;41970;48.774;9.280;2022-10-04T23:41:54;11.90;99.90
56103;DHT22;41970;48.774;9.280;2022-10-04T23:44:35;11.90;99.90
56103;DHT22;41970;48.774;9.280;2022-10-04T23:47:02;11.90;99.90
56103;DHT22;41970;48.774;9.280;2022-10-04T23:49:28;11.90;99.90
56103;DHT22;41970;48.774;9.280;2022-10-04T23:51:58;11.90;99.90
56103;DHT22;41970;48.774;9.280;2022-10-04T23:54:26;11.80;99.90
56103;DHT22;41970;48.774;9.280;2022-10-04T23:56:52;11.80;99.90
56103;DHT22;41970;48.774;9.280;2022-10-04T23:59:20;11.70;99.90
